sensor_id;sensor_type;location;lat;lon;timestamp;temperature;humidity
48998;DHT22;34807;51.456;7.244;2023-02-15T00:01:11;4.90;99.90
48998;DHT22;34807;51.456;7.244;2023-02-15T00:03:37;4.90;99.90
48998;DHT22;34807;51.456;7.244;2023-02-15T00:06:02;4.80;99.90
48998;DHT22;34807;51.456;7.244;2023-02-15T00:08:28;4.80;99.90
48998;DHT22;34807;51.456;7.244;2023-02-15T00:11:02;4.80;99.90
48998;DHT22;34807;51.456;7.244;2023-02-15T00:13:28;4.80;99.90
48998;DHT22;34807;51.456;7.244;2023-02-15T00:15:53;4.80;99.90
48998;DHT22;34807;51.456;7.244;2023-02-15T00:18:19;4.80;99.90
48998;DHT22;34807;51.456;7.244;2023-02-15T00:20:44;4.80;99.90
48998;DHT22;34807;51.456;7.244;2023-02-15T00:23:10;4.80;99.90
48998;DHT22;34807;51.456;7.244;2023-02-15T00:25:35;4.70;99.90
48998;DHT22;34807;51.456;7.244;2023-02-15T00:28:01;4.70;99.90
48998;DHT22;34807;51.456;7.244;2023-02-15T00:30:26;4.70;99.90
48998;DHT22;34807;51.456;7.244;2023-02-15T00:32:52;4.70;99.90
48998;DHT22;34807;51.456;7.244;2023-02-15T00:35:17;4.70;99.90
48998;DHT22;34807;51.456;7.244;2023-02-15T00:37:43;4.70;99.90
48998;DHT22;34807;51.456;7.244;2023-02-15T00:40:08;4.70;99.90
48998;DHT22;34807;51.456;7.244;2023-02-15T00:42:34;4.70;99.90
48998;DHT22;34807;51.456;7.244;2023-02-15T00:44:59;4.60;99.90
48998;DHT22;34807;51.456;7.244;2023-02-15T00:47:25;4.60;99.90
48998;DHT22;34807;51.456;7.244;2023-02-15T00:49:50;4.60;99.90
48998;DHT22;34807;51.456;7.244;2023-02-15T00:52:16;4.60;99.90
48998;DHT22;34807;51.456;7.244;2023-02-15T00:54:41;4.60;99.90
48998;DHT22;34807;51.456;7.244;2023-02-15T00:57:07;4.60;99.90
48998;DHT22;34807;51.456;7.244;2023-02-15T00:59:32;4.50;99.90
48998;DHT22;34807;51.456;7.244;2023-02-15T01:01:58;4.60;99.90
48998;DHT22;34807;51.456;7.244;2023-02-15T01:04:23;4.60;99.90
48998;DHT22;34807;51.456;7.244;2023-02-15T01:06:49;4.50;99.90
48998;DHT22;34807;51.456;7.244;2023-02-15T01:09:14;4.50;99.90
48998;DHT22;34807;51.456;7.244;2023-02-15T01:11:40;4.50;99.90
48998;DHT22;34807;51.456;7.244;2023-02-15T01:14:05;4.50;99.90
48998;DHT22;34807;51.456;7.244;2023-02-15T01:16:31;4.50;99.90
48998;DHT22;34807;51.456;7.244;2023-02-15T01:18:56;4.50;99.90
48998;DHT22;34807;51.456;7.244;2023-02-15T01:21:23;4.50;99.90
48998;DHT22;34807;51.456;7.244;2023-02-15T01:23:49;4.50;99.90
48998;DHT22;34807;51.456;7.244;2023-02-15T01:26:14;4.50;99.90
48998;DHT22;34807;51.456;7.244;2023-02-15T01:28:40;4.40;99.90
48998;DHT22;34807;51.456;7.244;2023-02-15T01:31:10;4.40;99.90
48998;DHT22;34807;51.456;7.244;2023-02-15T01:33:36;4.40;99.90
48998;DHT22;34807;51.456;7.244;2023-02-15T01:36:02;4.40;99.90
48998;DHT22;34807;51.456;7.244;2023-02-15T01:38:28;4.40;99.90
48998;DHT22;34807;51.456;7.244;2023-02-15T01:40:53;4.40;99.90
48998;DHT22;34807;51.456;7.244;2023-02-15T01:43:19;4.40;99.90
48998;DHT22;34807;51.456;7.244;2023-02-15T01:45:45;4.40;99.90
48998;DHT22;34807;51.456;7.244;2023-02-15T01:48:20;4.40;99.90
48998;DHT22;34807;51.456;7.244;2023-02-15T01:50:54;4.30;99.90
48998;DHT22;34807;51.456;7.244;2023-02-15T01:55:47;4.30;99.90
48998;DHT22;34807;51.456;7.244;2023-02-15T01:58:15;4.30;99.90
48998;DHT22;34807;51.456;7.244;2023-02-15T02:00:41;4.30;99.90
48998;DHT22;34807;51.456;7.244;2023-02-15T02:03:07;4.30;99.90
48998;DHT22;34807;51.456;7.244;2023-02-15T02:05:33;4.30;99.90
48998;DHT22;34807;51.456;7.244;2023-02-15T02:07:59;4.30;99.90
48998;DHT22;34807;51.456;7.244;2023-02-15T02:10:26;4.30;99.90
48998;DHT22;34807;51.456;7.244;2023-02-15T02:12:52;4.30;99.90
48998;DHT22;34807;51.456;7.244;2023-02-15T02:15:20;4.20;99.90
48998;DHT22;34807;51.456;7.244;2023-02-15T02:17:50;4.20;99.90
48998;DHT22;34807;51.456;7.244;2023-02-15T02:21:02;4.20;99.90
48998;DHT22;34807;51.456;7.244;2023-02-15T02:23:23;4.20;99.90
48998;DHT22;34807;51.456;7.244;2023-02-15T02:42:00;4.10;99.90
48998;DHT22;34807;51.456;7.244;2023-02-15T02:44:43;4.10;99.90
48998;DHT22;34807;51.456;7.244;2023-02-15T02:47:11;4.10;99.90
48998;DHT22;34807;51.456;7.244;2023-02-15T02:49:39;4.10;99.90
48998;DHT22;34807;51.456;7.244;2023-02-15T02:52:51;4.10;99.90
48998;DHT22;34807;51.456;7.244;2023-02-15T02:54:51;4.10;99.90
48998;DHT22;34807;51.456;7.244;2023-02-15T02:57:16;4.10;99.90
48998;DHT22;34807;51.456;7.244;2023-02-15T02:59:42;4.00;99.90
48998;DHT22;34807;51.456;7.244;2023-02-15T03:02:11;4.00;99.90
48998;DHT22;34807;51.456;7.244;2023-02-15T03:04:39;4.00;99.90
48998;DHT22;34807;51.456;7.244;2023-02-15T03:07:08;4.00;99.90
48998;DHT22;34807;51.456;7.244;2023-02-15T03:09:37;4.00;99.90
48998;DHT22;34807;51.456;7.244;2023-02-15T03:12:19;4.00;99.90
48998;DHT22;34807;51.456;7.244;2023-02-15T03:14:47;4.00;99.90
48998;DHT22;34807;51.456;7.244;2023-02-15T03:17:13;4.00;99.90
48998;DHT22;34807;51.456;7.244;2023-02-15T03:19:40;3.90;99.90
48998;DHT22;34807;51.456;7.244;2023-02-15T03:22:08;4.00;99.90
48998;DHT22;34807;51.456;7.244;2023-02-15T03:24:38;4.00;99.90
48998;DHT22;34807;51.456;7.244;2023-02-15T03:27:07;4.00;99.90
48998;DHT22;34807;51.456;7.244;2023-02-15T03:29:35;3.90;99.90
48998;DHT22;34807;51.456;7.244;2023-02-15T03:32:03;3.90;99.90
48998;DHT22;34807;51.456;7.244;2023-02-15T03:34:30;3.90;99.90
48998;DHT22;34807;51.456;7.244;2023-02-15T03:36:57;3.90;99.90
48998;DHT22;34807;51.456;7.244;2023-02-15T03:41:55;3.90;99.90
48998;DHT22;34807;51.456;7.244;2023-02-15T03:46:48;3.90;99.90
48998;DHT22;34807;51.456;7.244;2023-02-15T03:49:27;3.90;99.90
48998;DHT22;34807;51.456;7.244;2023-02-15T03:51:54;3.90;99.90
48998;DHT22;34807;51.456;7.244;2023-02-15T03:54:24;3.80;99.90
48998;DHT22;34807;51.456;7.244;2023-02-15T03:59:55;3.90;99.90
48998;DHT22;34807;51.456;7.244;2023-02-15T04:02:46;3.80;99.90
48998;DHT22;34807;51.456;7.244;2023-02-15T04:05:15;3.80;99.90
48998;DHT22;34807;51.456;7.244;2023-02-15T04:07:40;3.80;99.90
48998;DHT22;34807;51.456;7.244;2023-02-15T04:10:06;3.80;99.90
48998;DHT22;34807;51.456;7.244;2023-02-15T04:12:50;3.80;99.90
48998;DHT22;34807;51.456;7.244;2023-02-15T04:15:15;3.80;99.90
48998;DHT22;34807;51.456;7.244;2023-02-15T04:18:01;3.80;99.90
48998;DHT22;34807;51.456;7.244;2023-02-15T04:20:27;3.80;99.90
48998;DHT22;34807;51.456;7.244;2023-02-15T04:23:11;3.80;99.90
48998;DHT22;34807;51.456;7.244;2023-02-15T04:25:55;3.80;99.90
48998;DHT22;34807;51.456;7.244;2023-02-15T04:28:21;3.70;99.90
48998;DHT22;34807;51.456;7.244;2023-02-15T04:30:46;3.80;99.90
48998;DHT22;34807;51.456;7.244;2023-02-15T04:33:12;3.70;99.90
48998;DHT22;34807;51.456;7.244;2023-02-15T04:35:37;3.70;99.90
48998;DHT22;34807;51.456;7.244;2023-02-15T04:38:03;3.70;99.90
48998;DHT22;34807;51.456;7.244;2023-02-15T04:40:28;3.70;99.90
48998;DHT22;34807;51.456;7.244;2023-02-15T04:42:54;3.70;99.90
48998;DHT22;34807;51.456;7.244;2023-02-15T04:45:19;3.70;99.90
48998;DHT22;34807;51.456;7.244;2023-02-15T04:47:45;3.70;99.90
48998;DHT22;34807;51.456;7.244;2023-02-15T04:50:10;3.70;99.90
48998;DHT22;34807;51.456;7.244;2023-02-15T04:52:36;3.70;99.90
48998;DHT22;34807;51.456;7.244;2023-02-15T04:55:01;3.70;99.90
48998;DHT22;34807;51.456;7.244;2023-02-15T04:57:27;3.60;99.90
48998;DHT22;34807;51.456;7.244;2023-02-15T04:59:52;3.60;99.90
48998;DHT22;34807;51.456;7.244;2023-02-15T05:02:18;3.60;99.90
48998;DHT22;34807;51.456;7.244;2023-02-15T05:04:43;3.60;99.90
48998;DHT22;34807;51.456;7.244;2023-02-15T05:07:09;3.60;99.90
48998;DHT22;34807;51.456;7.244;2023-02-15T05:09:34;3.60;99.90
48998;DHT22;34807;51.456;7.244;2023-02-15T05:12:00;3.60;99.90
48998;DHT22;34807;51.456;7.244;2023-02-15T05:14:25;3.60;99.90
48998;DHT22;34807;51.456;7.244;2023-02-15T05:16:51;3.60;99.90
48998;DHT22;34807;51.456;7.244;2023-02-15T05:19:16;3.60;99.90
48998;DHT22;34807;51.456;7.244;2023-02-15T05:21:43;3.60;99.90
48998;DHT22;34807;51.456;7.244;2023-02-15T05:24:09;3.60;99.90
48998;DHT22;34807;51.456;7.244;2023-02-15T05:26:53;3.50;99.90
48998;DHT22;34807;51.456;7.244;2023-02-15T05:29:42;3.50;99.90
48998;DHT22;34807;51.456;7.244;2023-02-15T05:32:07;3.50;99.90
48998;DHT22;34807;51.456;7.244;2023-02-15T05:34:33;3.50;99.90
48998;DHT22;34807;51.456;7.244;2023-02-15T05:36:58;3.50;99.90
48998;DHT22;34807;51.456;7.244;2023-02-15T05:39:24;3.50;99.90
48998;DHT22;34807;51.456;7.244;2023-02-15T05:41:49;3.50;99.90
48998;DHT22;34807;51.456;7.244;2023-02-15T05:44:15;3.50;99.90
48998;DHT22;34807;51.456;7.244;2023-02-15T05:46:40;3.50;99.90
48998;DHT22;34807;51.456;7.244;2023-02-15T05:49:06;3.50;99.90
48998;DHT22;34807;51.456;7.244;2023-02-15T05:51:31;3.50;99.90
48998;DHT22;34807;51.456;7.244;2023-02-15T05:53:57;3.50;99.90
48998;DHT22;34807;51.456;7.244;2023-02-15T05:56:22;3.40;99.90
48998;DHT22;34807;51.456;7.244;2023-02-15T05:58:47;3.40;99.90
48998;DHT22;34807;51.456;7.244;2023-02-15T06:01:14;3.40;99.90
48998;DHT22;34807;51.456;7.244;2023-02-15T06:03:40;3.40;99.90
48998;DHT22;34807;51.456;7.244;2023-02-15T06:06:06;3.40;99.90
48998;DHT22;34807;51.456;7.244;2023-02-15T06:08:32;3.40;99.90
48998;DHT22;34807;51.456;7.244;2023-02-15T06:10:58;3.40;99.90
48998;DHT22;34807;51.456;7.244;2023-02-15T06:13:23;3.40;99.90
48998;DHT22;34807;51.456;7.244;2023-02-15T06:15:49;3.40;99.90
48998;DHT22;34807;51.456;7.244;2023-02-15T06:18:14;3.30;99.90
48998;DHT22;34807;51.456;7.244;2023-02-15T06:20:40;3.30;99.90
48998;DHT22;34807;51.456;7.244;2023-02-15T06:23:05;3.30;99.90
48998;DHT22;34807;51.456;7.244;2023-02-15T06:25:30;3.30;99.90
48998;DHT22;34807;51.456;7.244;2023-02-15T06:27:56;3.30;99.90
48998;DHT22;34807;51.456;7.244;2023-02-15T06:30:21;3.30;99.90
48998;DHT22;34807;51.456;7.244;2023-02-15T06:32:47;3.30;99.90
48998;DHT22;34807;51.456;7.244;2023-02-15T06:35:12;3.30;99.90
48998;DHT22;34807;51.456;7.244;2023-02-15T06:37:38;3.30;99.90
48998;DHT22;34807;51.456;7.244;2023-02-15T06:40:04;3.30;99.90
48998;DHT22;34807;51.456;7.244;2023-02-15T06:42:29;3.30;99.90
48998;DHT22;34807;51.456;7.244;2023-02-15T06:44:55;3.30;99.90
48998;DHT22;34807;51.456;7.244;2023-02-15T06:47:20;3.30;99.90
48998;DHT22;34807;51.456;7.244;2023-02-15T06:49:46;3.30;99.90
48998;DHT22;34807;51.456;7.244;2023-02-15T06:52:11;3.30;99.90
48998;DHT22;34807;51.456;7.244;2023-02-15T06:54:37;3.30;99.90
48998;DHT22;34807;51.456;7.244;2023-02-15T06:57:02;3.30;99.90
48998;DHT22;34807;51.456;7.244;2023-02-15T06:59:28;3.30;99.90
48998;DHT22;34807;51.456;7.244;2023-02-15T07:01:53;3.30;99.90
48998;DHT22;34807;51.456;7.244;2023-02-15T07:04:19;3.30;99.90
48998;DHT22;34807;51.456;7.244;2023-02-15T07:06:44;3.30;99.90
48998;DHT22;34807;51.456;7.244;2023-02-15T07:09:11;3.30;99.90
48998;DHT22;34807;51.456;7.244;2023-02-15T07:11:36;3.30;99.90
48998;DHT22;34807;51.456;7.244;2023-02-15T07:14:20;3.30;99.90
48998;DHT22;34807;51.456;7.244;2023-02-15T07:16:46;3.30;99.90
48998;DHT22;34807;51.456;7.244;2023-02-15T07:19:11;3.30;99.90
48998;DHT22;34807;51.456;7.244;2023-02-15T07:21:37;3.30;99.90
48998;DHT22;34807;51.456;7.244;2023-02-15T07:24:02;3.30;99.90
48998;DHT22;34807;51.456;7.244;2023-02-15T07:26:28;3.30;99.90
48998;DHT22;34807;51.456;7.244;2023-02-15T07:28:53;3.30;99.90
48998;DHT22;34807;51.456;7.244;2023-02-15T07:31:19;3.30;99.90
48998;DHT22;34807;51.456;7.244;2023-02-15T07:33:44;3.30;99.90
48998;DHT22;34807;51.456;7.244;2023-02-15T07:36:10;3.30;99.90
48998;DHT22;34807;51.456;7.244;2023-02-15T07:38:38;3.30;99.90
48998;DHT22;34807;51.456;7.244;2023-02-15T07:41:05;3.30;99.90
48998;DHT22;34807;51.456;7.244;2023-02-15T07:43:32;3.30;99.90
48998;DHT22;34807;51.456;7.244;2023-02-15T07:46:01;3.30;99.90
48998;DHT22;34807;51.456;7.244;2023-02-15T07:48:27;3.30;99.90
48998;DHT22;34807;51.456;7.244;2023-02-15T07:50:52;3.30;99.90
48998;DHT22;34807;51.456;7.244;2023-02-15T07:53:18;3.30;99.90
48998;DHT22;34807;51.456;7.244;2023-02-15T07:55:43;3.30;99.90
48998;DHT22;34807;51.456;7.244;2023-02-15T07:58:09;3.30;99.90
48998;DHT22;34807;51.456;7.244;2023-02-15T08:00:34;3.30;99.90
48998;DHT22;34807;51.456;7.244;2023-02-15T08:03:22;3.30;99.90
48998;DHT22;34807;51.456;7.244;2023-02-15T08:05:48;3.30;99.90
48998;DHT22;34807;51.456;7.244;2023-02-15T08:08:13;3.40;99.90
48998;DHT22;34807;51.456;7.244;2023-02-15T08:11:01;3.40;99.90
48998;DHT22;34807;51.456;7.244;2023-02-15T08:13:46;3.40;99.90
48998;DHT22;34807;51.456;7.244;2023-02-15T08:16:21;3.40;99.90
48998;DHT22;34807;51.456;7.244;2023-02-15T08:18:47;3.40;99.90
48998;DHT22;34807;51.456;7.244;2023-02-15T08:21:13;3.40;99.90
48998;DHT22;34807;51.456;7.244;2023-02-15T08:23:38;3.40;99.90
48998;DHT22;34807;51.456;7.244;2023-02-15T08:26:04;3.40;99.90
48998;DHT22;34807;51.456;7.244;2023-02-15T08:28:30;3.40;99.90
48998;DHT22;34807;51.456;7.244;2023-02-15T08:31:03;3.50;99.90
48998;DHT22;34807;51.456;7.244;2023-02-15T08:33:29;3.50;99.90
48998;DHT22;34807;51.456;7.244;2023-02-15T08:35:54;3.50;99.90
48998;DHT22;34807;51.456;7.244;2023-02-15T08:38:20;3.50;99.90
48998;DHT22;34807;51.456;7.244;2023-02-15T08:40:45;3.50;99.90
48998;DHT22;34807;51.456;7.244;2023-02-15T08:43:11;3.50;99.90
48998;DHT22;34807;51.456;7.244;2023-02-15T08:45:36;3.50;99.90
48998;DHT22;34807;51.456;7.244;2023-02-15T08:48:02;3.60;99.90
48998;DHT22;34807;51.456;7.244;2023-02-15T08:50:27;3.60;99.90
48998;DHT22;34807;51.456;7.244;2023-02-15T08:52:53;3.60;99.90
48998;DHT22;34807;51.456;7.244;2023-02-15T08:55:18;3.60;99.90
48998;DHT22;34807;51.456;7.244;2023-02-15T08:57:44;3.60;99.90
48998;DHT22;34807;51.456;7.244;2023-02-15T09:00:11;3.70;99.90
48998;DHT22;34807;51.456;7.244;2023-02-15T09:02:37;3.60;99.90
48998;DHT22;34807;51.456;7.244;2023-02-15T09:05:02;3.70;99.90
48998;DHT22;34807;51.456;7.244;2023-02-15T09:07:28;3.70;99.90
48998;DHT22;34807;51.456;7.244;2023-02-15T09:09:54;3.70;99.90
48998;DHT22;34807;51.456;7.244;2023-02-15T09:12:20;3.80;99.90
48998;DHT22;34807;51.456;7.244;2023-02-15T09:14:45;3.80;99.90
48998;DHT22;34807;51.456;7.244;2023-02-15T09:17:11;3.90;99.90
48998;DHT22;34807;51.456;7.244;2023-02-15T09:19:36;3.90;99.90
48998;DHT22;34807;51.456;7.244;2023-02-15T09:22:01;3.90;99.90
48998;DHT22;34807;51.456;7.244;2023-02-15T09:24:27;3.90;99.90
48998;DHT22;34807;51.456;7.244;2023-02-15T09:26:56;3.90;99.90
48998;DHT22;34807;51.456;7.244;2023-02-15T09:29:22;4.00;99.90
48998;DHT22;34807;51.456;7.244;2023-02-15T09:31:48;4.00;99.90
48998;DHT22;34807;51.456;7.244;2023-02-15T09:34:15;4.00;99.90
48998;DHT22;34807;51.456;7.244;2023-02-15T09:36:42;4.00;99.90
48998;DHT22;34807;51.456;7.244;2023-02-15T09:54:33;4.20;99.90
48998;DHT22;34807;51.456;7.244;2023-02-15T09:57:13;4.20;99.90
48998;DHT22;34807;51.456;7.244;2023-02-15T10:04:46;4.30;99.90
48998;DHT22;34807;51.456;7.244;2023-02-15T10:09:49;4.40;99.90
48998;DHT22;34807;51.456;7.244;2023-02-15T10:14:49;4.50;99.90
48998;DHT22;34807;51.456;7.244;2023-02-15T10:20:12;4.60;99.90
48998;DHT22;34807;51.456;7.244;2023-02-15T10:27:55;4.70;99.90
48998;DHT22;34807;51.456;7.244;2023-02-15T10:30:36;4.80;99.90
48998;DHT22;34807;51.456;7.244;2023-02-15T10:33:04;4.80;99.90
48998;DHT22;34807;51.456;7.244;2023-02-15T10:50:48;5.10;99.90
48998;DHT22;34807;51.456;7.244;2023-02-15T10:56:01;5.30;99.90
48998;DHT22;34807;51.456;7.244;2023-02-15T11:01:02;5.40;99.90
48998;DHT22;34807;51.456;7.244;2023-02-15T11:08:24;5.60;99.90
48998;DHT22;34807;51.456;7.244;2023-02-15T11:10:52;5.70;99.90
48998;DHT22;34807;51.456;7.244;2023-02-15T11:13:19;5.80;99.90
48998;DHT22;34807;51.456;7.244;2023-02-15T11:15:55;5.80;99.90
48998;DHT22;34807;51.456;7.244;2023-02-15T11:18:32;5.90;99.90
48998;DHT22;34807;51.456;7.244;2023-02-15T11:23:23;6.10;99.90
48998;DHT22;34807;51.456;7.244;2023-02-15T11:25:59;6.10;99.90
48998;DHT22;34807;51.456;7.244;2023-02-15T11:28:27;6.20;99.90
48998;DHT22;34807;51.456;7.244;2023-02-15T11:30:55;6.30;99.90
48998;DHT22;34807;51.456;7.244;2023-02-15T11:33:23;6.40;99.90
48998;DHT22;34807;51.456;7.244;2023-02-15T11:36:00;6.50;99.90
48998;DHT22;34807;51.456;7.244;2023-02-15T11:38:33;6.60;99.90
48998;DHT22;34807;51.456;7.244;2023-02-15T11:41:03;6.70;99.90
48998;DHT22;34807;51.456;7.244;2023-02-15T11:45:59;6.90;99.90
48998;DHT22;34807;51.456;7.244;2023-02-15T11:48:24;7.00;99.90
48998;DHT22;34807;51.456;7.244;2023-02-15T11:50:50;7.10;99.90
48998;DHT22;34807;51.456;7.244;2023-02-15T11:53:20;7.20;99.90
48998;DHT22;34807;51.456;7.244;2023-02-15T11:55:47;7.20;99.90
48998;DHT22;34807;51.456;7.244;2023-02-15T12:03:38;7.50;99.90
48998;DHT22;34807;51.456;7.244;2023-02-15T12:06:06;7.60;99.90
48998;DHT22;34807;51.456;7.244;2023-02-15T12:08:40;7.70;99.90
48998;DHT22;34807;51.456;7.244;2023-02-15T12:11:09;7.70;99.90
48998;DHT22;34807;51.456;7.244;2023-02-15T12:13:56;7.80;99.90
48998;DHT22;34807;51.456;7.244;2023-02-15T12:16:22;7.90;99.90
48998;DHT22;34807;51.456;7.244;2023-02-15T12:18:47;7.90;99.90
48998;DHT22;34807;51.456;7.244;2023-02-15T12:21:23;8.00;99.90
48998;DHT22;34807;51.456;7.244;2023-02-15T12:23:50;8.10;99.90
48998;DHT22;34807;51.456;7.244;2023-02-15T12:26:30;8.10;99.90
48998;DHT22;34807;51.456;7.244;2023-02-15T12:29:00;8.20;99.90
48998;DHT22;34807;51.456;7.244;2023-02-15T12:31:37;8.30;99.90
48998;DHT22;34807;51.456;7.244;2023-02-15T12:34:07;8.40;99.90
48998;DHT22;34807;51.456;7.244;2023-02-15T12:36:42;8.40;99.90
48998;DHT22;34807;51.456;7.244;2023-02-15T12:41:43;8.50;99.90
48998;DHT22;34807;51.456;7.244;2023-02-15T12:46:35;8.60;99.90
48998;DHT22;34807;51.456;7.244;2023-02-15T12:54:31;8.80;99.90
48998;DHT22;34807;51.456;7.244;2023-02-15T12:56:57;8.80;99.90
48998;DHT22;34807;51.456;7.244;2023-02-15T12:59:23;8.90;99.90
48998;DHT22;34807;51.456;7.244;2023-02-15T13:01:49;8.90;99.90
48998;DHT22;34807;51.456;7.244;2023-02-15T13:04:24;9.00;99.90
48998;DHT22;34807;51.456;7.244;2023-02-15T13:06:50;9.00;99.90
48998;DHT22;34807;51.456;7.244;2023-02-15T13:11:42;9.10;99.90
48998;DHT22;34807;51.456;7.244;2023-02-15T13:14:19;9.20;99.90
48998;DHT22;34807;51.456;7.244;2023-02-15T13:16:48;9.20;99.90
48998;DHT22;34807;51.456;7.244;2023-02-15T13:19:26;9.30;99.90
48998;DHT22;34807;51.456;7.244;2023-02-15T13:21:53;9.30;99.90
48998;DHT22;34807;51.456;7.244;2023-02-15T13:26:45;9.40;99.90
48998;DHT22;34807;51.456;7.244;2023-02-15T13:29:22;9.40;99.90
48998;DHT22;34807;51.456;7.244;2023-02-15T13:31:49;9.50;99.90
48998;DHT22;34807;51.456;7.244;2023-02-15T13:34:20;9.50;99.90
48998;DHT22;34807;51.456;7.244;2023-02-15T13:39:36;9.60;99.90
48998;DHT22;34807;51.456;7.244;2023-02-15T13:47:34;9.60;99.90
48998;DHT22;34807;51.456;7.244;2023-02-15T13:53:06;9.70;99.90
48998;DHT22;34807;51.456;7.244;2023-02-15T14:01:11;9.80;99.90
48998;DHT22;34807;51.456;7.244;2023-02-15T14:06:14;9.90;99.90
48998;DHT22;34807;51.456;7.244;2023-02-15T14:09:01;9.90;99.90
48998;DHT22;34807;51.456;7.244;2023-02-15T14:11:37;9.90;99.90
48998;DHT22;34807;51.456;7.244;2023-02-15T14:17:22;9.90;99.90
48998;DHT22;34807;51.456;7.244;2023-02-15T14:27:52;10.00;99.90
48998;DHT22;34807;51.456;7.244;2023-02-15T14:30:20;10.00;99.90
48998;DHT22;34807;51.456;7.244;2023-02-15T14:32:50;10.00;99.90
48998;DHT22;34807;51.456;7.244;2023-02-15T14:35:18;10.00;99.90
48998;DHT22;34807;51.456;7.244;2023-02-15T14:43:32;10.00;99.90
48998;DHT22;34807;51.456;7.244;2023-02-15T14:48:25;10.00;99.90
48998;DHT22;34807;51.456;7.244;2023-02-15T14:50:54;10.00;99.90
48998;DHT22;34807;51.456;7.244;2023-02-15T14:58:38;10.00;99.90
48998;DHT22;34807;51.456;7.244;2023-02-15T15:01:32;10.00;99.90
48998;DHT22;34807;51.456;7.244;2023-02-15T15:03:59;10.00;99.90
48998;DHT22;34807;51.456;7.244;2023-02-15T15:06:26;9.90;99.90
48998;DHT22;34807;51.456;7.244;2023-02-15T15:08:53;10.00;99.90
48998;DHT22;34807;51.456;7.244;2023-02-15T15:13:58;9.90;99.90
48998;DHT22;34807;51.456;7.244;2023-02-15T15:19:10;9.90;99.90
48998;DHT22;34807;51.456;7.244;2023-02-15T15:29:50;9.80;99.90
48998;DHT22;34807;51.456;7.244;2023-02-15T15:32:15;9.80;99.90
48998;DHT22;34807;51.456;7.244;2023-02-15T15:34:51;9.80;99.90
48998;DHT22;34807;51.456;7.244;2023-02-15T15:45:22;9.60;99.90
48998;DHT22;34807;51.456;7.244;2023-02-15T15:50:19;9.60;99.90
48998;DHT22;34807;51.456;7.244;2023-02-15T15:52:49;9.60;99.90
48998;DHT22;34807;51.456;7.244;2023-02-15T15:55:17;9.50;99.90
48998;DHT22;34807;51.456;7.244;2023-02-15T15:57:43;9.50;99.90
48998;DHT22;34807;51.456;7.244;2023-02-15T16:02:51;9.50;99.90
48998;DHT22;34807;51.456;7.244;2023-02-15T16:05:16;9.50;99.90
48998;DHT22;34807;51.456;7.244;2023-02-15T16:07:42;9.50;99.90
48998;DHT22;34807;51.456;7.244;2023-02-15T16:10:19;9.40;99.90
48998;DHT22;34807;51.456;7.244;2023-02-15T16:12:45;9.40;99.90
48998;DHT22;34807;51.456;7.244;2023-02-15T16:15:16;9.40;99.90
48998;DHT22;34807;51.456;7.244;2023-02-15T16:17:43;9.30;99.90
48998;DHT22;34807;51.456;7.244;2023-02-15T16:20:16;9.30;99.90
48998;DHT22;34807;51.456;7.244;2023-02-15T16:22:44;9.30;99.90
48998;DHT22;34807;51.456;7.244;2023-02-15T16:27:45;9.10;99.90
48998;DHT22;34807;51.456;7.244;2023-02-15T16:32:46;9.10;99.90
48998;DHT22;34807;51.456;7.244;2023-02-15T16:35:16;9.10;99.90
48998;DHT22;34807;51.456;7.244;2023-02-15T16:37:42;9.00;99.90
48998;DHT22;34807;51.456;7.244;2023-02-15T16:40:27;9.00;99.90
48998;DHT22;34807;51.456;7.244;2023-02-15T16:42:54;9.00;99.90
48998;DHT22;34807;51.456;7.244;2023-02-15T16:45:22;8.90;99.90
48998;DHT22;34807;51.456;7.244;2023-02-15T16:47:50;8.90;99.90
48998;DHT22;34807;51.456;7.244;2023-02-15T16:50:19;8.90;99.90
48998;DHT22;34807;51.456;7.244;2023-02-15T16:52:45;8.80;99.90
48998;DHT22;34807;51.456;7.244;2023-02-15T16:55:19;8.80;99.90
48998;DHT22;34807;51.456;7.244;2023-02-15T16:57:45;8.70;99.90
48998;DHT22;34807;51.456;7.244;2023-02-15T17:00:21;8.70;99.90
48998;DHT22;34807;51.456;7.244;2023-02-15T17:02:58;8.70;99.90
48998;DHT22;34807;51.456;7.244;2023-02-15T17:05:24;8.60;99.90
48998;DHT22;34807;51.456;7.244;2023-02-15T17:10:40;8.60;99.90
48998;DHT22;34807;51.456;7.244;2023-02-15T17:15:36;8.50;99.90
48998;DHT22;34807;51.456;7.244;2023-02-15T17:20:37;8.40;99.90
48998;DHT22;34807;51.456;7.244;2023-02-15T17:23:03;8.40;99.90
48998;DHT22;34807;51.456;7.244;2023-02-15T17:25:36;8.40;99.90
48998;DHT22;34807;51.456;7.244;2023-02-15T17:28:02;8.30;99.90
48998;DHT22;34807;51.456;7.244;2023-02-15T17:30:30;8.30;99.90
48998;DHT22;34807;51.456;7.244;2023-02-15T17:33:00;8.20;99.90
48998;DHT22;34807;51.456;7.244;2023-02-15T17:35:29;8.20;99.90
48998;DHT22;34807;51.456;7.244;2023-02-15T17:40:31;8.10;99.90
48998;DHT22;34807;51.456;7.244;2023-02-15T17:42:57;8.20;99.90
48998;DHT22;34807;51.456;7.244;2023-02-15T17:45:24;8.10;99.90
48998;DHT22;34807;51.456;7.244;2023-02-15T17:47:50;8.10;99.90
48998;DHT22;34807;51.456;7.244;2023-02-15T17:50:23;8.00;99.90
48998;DHT22;34807;51.456;7.244;2023-02-15T17:52:49;8.00;99.90
48998;DHT22;34807;51.456;7.244;2023-02-15T17:55:16;8.00;99.90
48998;DHT22;34807;51.456;7.244;2023-02-15T17:58:07;8.00;99.90
48998;DHT22;34807;51.456;7.244;2023-02-15T18:00:34;7.90;99.90
48998;DHT22;34807;51.456;7.244;2023-02-15T18:03:18;7.90;99.90
48998;DHT22;34807;51.456;7.244;2023-02-15T18:06:02;7.90;99.90
48998;DHT22;34807;51.456;7.244;2023-02-15T18:08:47;7.90;99.90
48998;DHT22;34807;51.456;7.244;2023-02-15T18:11:31;7.80;99.90
48998;DHT22;34807;51.456;7.244;2023-02-15T18:14:06;7.80;99.90
48998;DHT22;34807;51.456;7.244;2023-02-15T18:16:36;7.80;99.90
48998;DHT22;34807;51.456;7.244;2023-02-15T18:19:03;7.70;99.90
48998;DHT22;34807;51.456;7.244;2023-02-15T18:21:30;7.70;99.90
48998;DHT22;34807;51.456;7.244;2023-02-15T18:23:55;7.70;99.90
48998;DHT22;34807;51.456;7.244;2023-02-15T18:26:22;7.60;99.90
48998;DHT22;34807;51.456;7.244;2023-02-15T18:28:48;7.70;99.90
48998;DHT22;34807;51.456;7.244;2023-02-15T18:31:14;7.60;99.90
48998;DHT22;34807;51.456;7.244;2023-02-15T18:36:06;7.60;99.90
48998;DHT22;34807;51.456;7.244;2023-02-15T18:38:32;7.50;99.90
48998;DHT22;34807;51.456;7.244;2023-02-15T18:40:57;7.50;99.90
48998;DHT22;34807;51.456;7.244;2023-02-15T18:43:23;7.50;99.90
48998;DHT22;34807;51.456;7.244;2023-02-15T18:45:49;7.50;99.90
48998;DHT22;34807;51.456;7.244;2023-02-15T18:48:14;7.50;99.90
48998;DHT22;34807;51.456;7.244;2023-02-15T18:50:40;7.40;99.90
48998;DHT22;34807;51.456;7.244;2023-02-15T18:53:06;7.40;99.90
48998;DHT22;34807;51.456;7.244;2023-02-15T18:55:32;7.40;99.90
48998;DHT22;34807;51.456;7.244;2023-02-15T18:57:59;7.30;99.90
48998;DHT22;34807;51.456;7.244;2023-02-15T19:00:26;7.40;99.90
48998;DHT22;34807;51.456;7.244;2023-02-15T19:02:56;7.30;99.90
48998;DHT22;34807;51.456;7.244;2023-02-15T19:05:22;7.30;99.90
48998;DHT22;34807;51.456;7.244;2023-02-15T19:07:47;7.30;99.90
48998;DHT22;34807;51.456;7.244;2023-02-15T19:10:15;7.20;99.90
48998;DHT22;34807;51.456;7.244;2023-02-15T19:12:40;7.20;99.90